Mill Creek, Indiana
Current Conditions -  °F | °C
As of 8:15 AM on Sunday 25 Jan 2015 (Local Time) from KPPO Reporting Station
Haze Haze  
Wind Chill: 29°   Ceiling: 600
Heat Index: 36°   Visibility: 1.7mi
Dew Point: 36°   Wind: 10mph
Humidity: 100%   Direction: 60°ENE
Pressure: 29.73"   Gusts: NA
Location:  41.61°N, 86.54°W
Report Text: KPPO 251415Z AUTO 06009KT 1 3/4SM BR OVC006 02/02 A2973 RMK AO2 T00230023
Loading
Personal Weather Stations






























Interactive Weather Map New forecast layout! Learn more

10-Day Weather Forecast

Advertisements
Track Severe Weather on mobile